createdAt,value
2022-11-15T00:00:17.534Z,25.90
2022-11-15T00:01:19.375Z,27.90
2022-11-15T00:01:51.282Z,22.50
2022-11-15T00:02:23.302Z,24.30
2022-11-15T00:02:55.950Z,20.90
2022-11-15T00:03:28.608Z,26.80
2022-11-15T00:04:00.601Z,28.80
2022-11-15T00:04:32.562Z,25.00
2022-11-15T00:05:04.533Z,32.40
2022-11-15T00:05:37.628Z,37.30
2022-11-15T00:06:10.014Z,20.70
2022-11-15T00:06:42.066Z,29.30
2022-11-15T00:07:27.275Z,31.90
2022-11-15T00:08:05.798Z,18.40
2022-11-15T00:08:37.581Z,23.70
2022-11-15T00:09:09.667Z,24.80
2022-11-15T00:09:45.794Z,22.60
2022-11-15T00:10:18.138Z,23.20
2022-11-15T00:10:57.389Z,23.60
2022-11-15T00:11:30.738Z,23.80
2022-11-15T00:12:03.087Z,22.20
2022-11-15T00:12:34.976Z,21.20
2022-11-15T00:13:13.548Z,22.20
2022-11-15T00:13:45.486Z,23.10
2022-11-15T00:14:17.383Z,22.60
2022-11-15T00:14:49.165Z,21.60
2022-11-15T00:15:21.241Z,24.10
2022-11-15T00:15:53.221Z,21.70
2022-11-15T00:16:25.337Z,18.70
2022-11-15T00:16:57.080Z,21.80
2022-11-15T00:17:29.120Z,21.10
2022-11-15T00:18:01.020Z,22.70
2022-11-15T00:18:33.107Z,21.40
2022-11-15T00:19:05.180Z,23.90
2022-11-15T00:19:37.113Z,23.30
2022-11-15T00:20:09.476Z,22.90
2022-11-15T00:20:41.412Z,25.00
2022-11-15T00:21:14.759Z,20.20
2022-11-15T00:21:46.540Z,21.30
2022-11-15T00:22:18.932Z,20.80
2022-11-15T00:22:51.162Z,23.60
2022-11-15T00:23:23.134Z,26.80
2022-11-15T00:23:55.042Z,51.00
2022-11-15T00:24:26.865Z,32.20
2022-11-15T00:24:58.679Z,25.60
2022-11-15T00:25:30.921Z,21.70
2022-11-15T00:26:02.942Z,22.20
2022-11-15T00:26:34.865Z,18.70
2022-11-15T00:27:08.244Z,23.40
2022-11-15T00:27:40.387Z,20.50
2022-11-15T00:28:12.180Z,23.50
2022-11-15T00:28:44.530Z,20.90
2022-11-15T00:29:16.480Z,45.60
2022-11-15T00:29:48.373Z,21.70
2022-11-15T00:30:20.185Z,22.70
2022-11-15T00:30:52.478Z,23.90
2022-11-15T00:31:24.368Z,32.70
2022-11-15T00:31:56.826Z,28.10
2022-11-15T00:32:33.059Z,26.00
2022-11-15T00:33:06.314Z,22.80
2022-11-15T00:33:38.469Z,21.10
2022-11-15T00:34:11.084Z,32.00
2022-11-15T00:34:43.017Z,51.10
2022-11-15T00:35:14.983Z,38.70
2022-11-15T00:35:46.780Z,25.30
2022-11-15T00:36:18.619Z,45.60
2022-11-15T00:36:50.467Z,28.20
2022-11-15T00:37:22.279Z,32.60
2022-11-15T00:37:54.006Z,34.50
2022-11-15T00:38:25.726Z,28.00
2022-11-15T00:38:57.784Z,22.00
2022-11-15T00:39:29.725Z,21.80
2022-11-15T00:40:01.568Z,37.40
2022-11-15T00:40:33.443Z,37.50
2022-11-15T00:41:09.627Z,31.50
2022-11-15T00:41:42.259Z,24.60
2022-11-15T00:42:14.073Z,25.60
2022-11-15T00:42:46.435Z,22.30
2022-11-15T00:43:18.416Z,25.60
2022-11-15T00:43:50.209Z,26.10
2022-11-15T00:44:22.109Z,23.80
2022-11-15T00:44:53.873Z,22.20
2022-11-15T00:45:26.396Z,29.00
2022-11-15T00:45:58.884Z,25.10
2022-11-15T00:46:30.765Z,17.60
2022-11-15T00:47:02.545Z,22.80
2022-11-15T00:47:34.430Z,20.80
2022-11-15T00:48:06.330Z,27.00
2022-11-15T00:48:38.261Z,19.70
2022-11-15T00:49:10.110Z,25.40
2022-11-15T00:49:42.369Z,17.60
2022-11-15T00:50:15.477Z,17.40
2022-11-15T00:50:47.746Z,19.10
2022-11-15T00:51:19.840Z,20.10
2022-11-15T00:51:51.646Z,20.10
2022-11-15T00:52:23.493Z,28.30
2022-11-15T00:52:55.469Z,21.80
2022-11-15T00:53:27.302Z,28.80
2022-11-15T00:53:59.929Z,16.70
2022-11-15T00:54:31.943Z,18.50
2022-11-15T00:55:04.439Z,17.70
2022-11-15T00:55:36.713Z,23.10
2022-11-15T00:56:08.494Z,21.90
2022-11-15T00:56:40.212Z,33.10
2022-11-15T00:57:12.141Z,24.40
2022-11-15T00:57:44.343Z,28.50
2022-11-15T00:58:16.197Z,22.30
2022-11-15T00:58:47.947Z,18.70
2022-11-15T00:59:19.807Z,32.00
2022-11-15T00:59:51.732Z,17.00
2022-11-15T01:00:23.762Z,20.30
2022-11-15T01:00:55.849Z,19.80
2022-11-15T01:01:27.947Z,22.30
2022-11-15T01:01:59.874Z,23.60
2022-11-15T01:02:31.782Z,24.20
2022-11-15T01:03:03.702Z,14.00
2022-11-15T01:03:36.425Z,19.00
2022-11-15T01:04:08.217Z,21.90
2022-11-15T01:04:40.003Z,17.80
2022-11-15T01:05:12.192Z,15.80
2022-11-15T01:05:44.802Z,15.60
2022-11-15T01:06:16.950Z,20.30
2022-11-15T01:06:48.756Z,23.40
2022-11-15T01:07:20.625Z,32.80
2022-11-15T01:07:56.332Z,19.40
2022-11-15T01:08:28.212Z,22.10
2022-11-15T01:08:59.908Z,19.30
2022-11-15T01:09:31.692Z,18.20
2022-11-15T01:10:04.517Z,20.90
2022-11-15T01:10:37.527Z,15.70
2022-11-15T01:11:12.270Z,20.60
2022-11-15T01:11:44.046Z,16.70
2022-11-15T01:12:15.866Z,18.80
2022-11-15T01:12:47.695Z,21.20
2022-11-15T01:13:19.453Z,20.50
2022-11-15T01:13:51.249Z,16.60
2022-11-15T01:14:25.348Z,28.80
2022-11-15T01:14:57.492Z,18.70
2022-11-15T01:15:29.235Z,15.90
2022-11-15T01:16:09.462Z,27.30
2022-11-15T01:16:41.207Z,19.90
2022-11-15T01:17:13.174Z,17.90
2022-11-15T01:17:45.044Z,19.10
2022-11-15T01:18:16.878Z,20.10
2022-11-15T01:18:48.734Z,18.00
2022-11-15T01:19:20.752Z,18.10
2022-11-15T01:19:52.552Z,20.00
2022-11-15T01:20:24.800Z,18.50
2022-11-15T01:20:56.623Z,20.60
2022-11-15T01:21:28.462Z,26.00
2022-11-15T01:22:00.361Z,18.00
2022-11-15T01:22:32.189Z,23.30
2022-11-15T01:23:03.904Z,15.60
2022-11-15T01:23:35.851Z,16.00
2022-11-15T01:24:08.835Z,26.20
2022-11-15T01:24:40.618Z,24.30
2022-11-15T01:25:12.502Z,16.20
2022-11-15T01:25:44.260Z,19.90
2022-11-15T01:26:16.558Z,14.80
2022-11-15T01:26:48.389Z,14.50
2022-11-15T01:27:20.304Z,13.70
2022-11-15T01:27:52.006Z,20.00
2022-11-15T01:28:23.893Z,13.40
2022-11-15T01:28:55.607Z,22.00
2022-11-15T01:29:27.302Z,17.60
2022-11-15T01:29:58.932Z,21.10
2022-11-15T01:30:30.591Z,25.60
2022-11-15T01:31:04.829Z,19.20
2022-11-15T01:31:36.560Z,18.60
2022-11-15T01:32:08.795Z,19.70
2022-11-15T01:32:40.519Z,16.40
2022-11-15T01:33:12.247Z,22.30
2022-11-15T01:33:44.559Z,21.50
2022-11-15T01:34:16.458Z,26.10
2022-11-15T01:34:48.233Z,22.40
2022-11-15T01:35:20.750Z,23.00
2022-11-15T01:35:52.473Z,21.80
2022-11-15T01:36:24.612Z,21.60
2022-11-15T01:36:56.438Z,20.40
2022-11-15T01:37:28.262Z,19.20
2022-11-15T01:38:00.027Z,20.90
2022-11-15T01:38:31.788Z,29.00
2022-11-15T01:39:03.751Z,23.10
2022-11-15T01:39:35.600Z,23.30
2022-11-15T01:40:08.018Z,21.20
2022-11-15T01:40:39.965Z,39.30
2022-11-15T01:41:20.019Z,25.10
2022-11-15T01:41:51.801Z,19.20
2022-11-15T01:42:23.634Z,26.10
2022-11-15T01:42:55.546Z,24.30
2022-11-15T01:43:27.336Z,31.40
2022-11-15T01:44:37.412Z,29.60
2022-11-15T01:45:15.423Z,18.10
2022-11-15T01:45:53.216Z,22.60
2022-11-15T01:46:30.394Z,16.80
2022-11-15T01:47:14.011Z,17.50
2022-11-15T01:47:53.799Z,14.70
2022-11-15T01:48:33.818Z,18.50
2022-11-15T01:49:13.619Z,20.80
2022-11-15T01:50:05.772Z,16.10
2022-11-15T01:50:37.629Z,16.90
2022-11-15T01:51:14.040Z,15.20
2022-11-15T01:51:46.026Z,18.40
2022-11-15T01:52:21.430Z,12.40
2022-11-15T01:52:53.316Z,14.10
2022-11-15T01:53:26.696Z,13.10
2022-11-15T01:54:04.418Z,13.30
2022-11-15T01:54:36.661Z,12.70
2022-11-15T01:55:18.881Z,19.10
2022-11-15T01:55:50.712Z,16.20
2022-11-15T01:56:28.391Z,25.50
2022-11-15T01:57:07.999Z,13.50
2022-11-15T01:57:43.171Z,19.30
2022-11-15T01:58:15.365Z,17.80
2022-11-15T01:58:47.687Z,14.40
2022-11-15T01:59:20.174Z,14.90
2022-11-15T01:59:52.078Z,18.90
2022-11-15T02:00:24.184Z,25.20
2022-11-15T02:00:56.138Z,13.80
2022-11-15T02:01:30.372Z,19.90
2022-11-15T02:02:02.295Z,21.70
2022-11-15T02:02:36.733Z,23.90
2022-11-15T02:03:08.599Z,14.10
2022-11-15T02:03:49.961Z,17.00
2022-11-15T02:04:48.379Z,21.20
2022-11-15T02:05:20.328Z,17.90
2022-11-15T02:05:53.425Z,15.40
2022-11-15T02:06:26.310Z,20.50
2022-11-15T02:07:00.841Z,22.80
2022-11-15T02:07:34.648Z,17.90
2022-11-15T02:08:07.296Z,17.00
2022-11-15T02:08:39.101Z,16.70
2022-11-15T02:09:12.935Z,29.30
2022-11-15T02:09:46.355Z,15.20
2022-11-15T02:10:21.328Z,27.90
2022-11-15T02:10:53.123Z,20.70
2022-11-15T02:11:25.147Z,15.10
2022-11-15T02:11:58.032Z,11.80
2022-11-15T02:12:32.387Z,18.70
2022-11-15T02:13:04.310Z,13.60
2022-11-15T02:13:37.448Z,11.10
2022-11-15T02:14:10.968Z,12.80
2022-11-15T02:14:47.030Z,15.90
2022-11-15T02:15:19.149Z,12.20
2022-11-15T02:16:09.576Z,12.30
2022-11-15T02:17:09.181Z,11.30
2022-11-15T02:18:05.349Z,9.80
2022-11-15T02:18:47.222Z,10.90
2022-11-15T02:20:06.816Z,11.40
2022-11-15T02:20:52.684Z,16.80
2022-11-15T02:22:10.131Z,12.50
2022-11-15T02:22:44.457Z,25.30
2022-11-15T02:23:27.973Z,13.60
2022-11-15T02:24:37.105Z,13.50
2022-11-15T02:25:50.447Z,17.50
2022-11-15T02:27:03.828Z,29.50
2022-11-15T02:27:54.050Z,14.70
2022-11-15T02:28:56.509Z,16.90
2022-11-15T02:29:54.070Z,40.60
2022-11-15T02:30:29.422Z,28.60
2022-11-15T02:31:06.106Z,17.60
2022-11-15T02:31:53.099Z,31.00
2022-11-15T02:32:37.405Z,30.60
2022-11-15T02:33:43.890Z,31.00
2022-11-15T02:34:41.363Z,20.10
2022-11-15T02:35:39.316Z,19.80
2022-11-15T02:36:19.188Z,21.80
2022-11-15T02:37:03.284Z,14.30
2022-11-15T02:37:39.893Z,35.10
2022-11-15T02:38:46.986Z,33.10
2022-11-15T02:39:32.310Z,20.10
2022-11-15T02:40:23.951Z,34.60
2022-11-15T02:41:07.492Z,25.40
2022-11-15T02:41:54.597Z,24.60
2022-11-15T02:42:50.501Z,20.50
2022-11-15T02:43:49.884Z,16.50
2022-11-15T02:44:32.762Z,18.20
2022-11-15T02:45:08.191Z,15.40
2022-11-15T02:45:48.998Z,20.10
2022-11-15T02:47:18.238Z,15.00
2022-11-15T02:47:52.646Z,13.60
2022-11-15T02:48:26.629Z,18.00
2022-11-15T02:48:58.550Z,12.60
2022-11-15T02:49:33.338Z,18.30
2022-11-15T02:50:09.477Z,24.70
2022-11-15T02:50:41.786Z,13.50
2022-11-15T02:51:14.308Z,12.30
2022-11-15T02:51:50.277Z,16.50
2022-11-15T02:52:25.786Z,16.60
2022-11-15T02:52:57.746Z,17.50
2022-11-15T02:53:29.892Z,17.10
2022-11-15T02:54:01.817Z,14.70
2022-11-15T02:54:35.265Z,18.50
2022-11-15T02:55:27.767Z,16.80
2022-11-15T02:55:59.548Z,16.50
2022-11-15T02:56:31.667Z,26.10
2022-11-15T02:57:16.706Z,26.30
2022-11-15T02:58:33.362Z,19.40
2022-11-15T02:59:05.242Z,17.80
2022-11-15T03:00:02.164Z,16.00
2022-11-15T03:00:46.439Z,14.20
2022-11-15T03:02:04.498Z,15.00
2022-11-15T03:03:00.549Z,25.80
2022-11-15T03:03:35.252Z,16.60
2022-11-15T03:04:13.109Z,20.90
2022-11-15T03:04:56.441Z,33.60
2022-11-15T03:05:41.654Z,20.90
2022-11-15T03:06:38.393Z,17.70
2022-11-15T03:07:30.738Z,16.30
2022-11-15T03:08:08.310Z,24.00
2022-11-15T03:08:52.460Z,29.60
2022-11-15T03:09:59.347Z,18.70
2022-11-15T03:10:50.485Z,19.10
2022-11-15T03:12:07.160Z,13.60
2022-11-15T03:12:49.752Z,29.90
2022-11-15T03:13:37.164Z,28.50
2022-11-15T03:14:14.925Z,25.60
2022-11-15T03:14:59.066Z,21.60
2022-11-15T03:15:37.527Z,21.70
2022-11-15T03:16:17.620Z,17.00
2022-11-15T03:17:01.199Z,17.00
2022-11-15T03:17:46.373Z,19.30
2022-11-15T03:18:30.828Z,24.20
2022-11-15T03:19:39.027Z,16.20
2022-11-15T03:20:14.390Z,22.50
2022-11-15T03:20:48.068Z,17.80
2022-11-15T03:21:22.280Z,28.30
2022-11-15T03:21:56.654Z,22.80
2022-11-15T03:22:33.933Z,20.50
2022-11-15T03:23:09.987Z,21.60
2022-11-15T03:23:42.204Z,16.10
2022-11-15T03:24:18.159Z,38.40
2022-11-15T03:25:00.464Z,26.00
2022-11-15T03:25:35.140Z,27.10
2022-11-15T03:26:12.519Z,22.90
2022-11-15T03:26:46.452Z,21.40
2022-11-15T03:27:23.182Z,15.80
2022-11-15T03:27:59.062Z,17.30
2022-11-15T03:29:03.750Z,20.30
2022-11-15T03:29:42.769Z,22.10
2022-11-15T03:30:15.204Z,19.20
2022-11-15T03:30:50.211Z,12.00
2022-11-15T03:31:49.615Z,17.50
2022-11-15T03:32:29.228Z,17.20
2022-11-15T03:33:03.407Z,15.00
2022-11-15T03:33:35.466Z,14.20
2022-11-15T03:34:11.764Z,22.50
2022-11-15T03:35:01.822Z,33.10
2022-11-15T03:35:43.123Z,21.50
2022-11-15T03:36:16.052Z,20.70
2022-11-15T03:36:50.510Z,15.00
2022-11-15T03:37:28.190Z,27.80
2022-11-15T03:38:06.172Z,13.60
2022-11-15T03:38:39.242Z,16.90
2022-11-15T03:39:19.179Z,16.50
2022-11-15T03:39:52.546Z,19.00
2022-11-15T03:40:53.600Z,20.10
2022-11-15T03:41:47.375Z,18.00
2022-11-15T03:42:40.244Z,15.40
2022-11-15T03:43:30.489Z,14.80
2022-11-15T03:44:14.479Z,18.10
2022-11-15T03:44:59.900Z,22.60
2022-11-15T03:45:47.216Z,31.60
2022-11-15T03:46:31.591Z,15.00
2022-11-15T03:47:16.193Z,19.30
2022-11-15T03:48:03.107Z,21.10
2022-11-15T03:48:40.297Z,17.30
2022-11-15T03:49:20.986Z,27.40
2022-11-15T03:50:08.243Z,15.70
2022-11-15T03:50:42.154Z,20.20
2022-11-15T03:51:14.701Z,13.40
2022-11-15T03:51:46.834Z,25.70
2022-11-15T03:52:20.842Z,18.70
2022-11-15T03:52:55.129Z,15.70
2022-11-15T03:53:28.949Z,24.30
2022-11-15T03:54:04.529Z,27.40
2022-11-15T03:54:36.212Z,23.10
2022-11-15T03:55:13.834Z,24.00
2022-11-15T03:55:45.763Z,24.50
2022-11-15T03:56:17.485Z,18.90
2022-11-15T03:56:49.310Z,23.60
2022-11-15T03:57:21.777Z,13.00
2022-11-15T03:57:59.590Z,15.70
2022-11-15T03:58:31.294Z,24.50
2022-11-15T03:59:03.052Z,46.40
2022-11-15T03:59:34.888Z,21.70
2022-11-15T04:00:07.270Z,19.80
2022-11-15T04:00:39.136Z,21.80
2022-11-15T04:01:11.197Z,29.20
2022-11-15T04:01:43.158Z,23.00
2022-11-15T04:02:16.010Z,26.20
2022-11-15T04:02:47.958Z,28.70
2022-11-15T04:03:19.902Z,14.90
2022-11-15T04:03:51.679Z,21.50
2022-11-15T04:04:23.624Z,22.70
2022-11-15T04:04:55.653Z,29.00
2022-11-15T04:05:27.472Z,12.50
2022-11-15T04:05:59.238Z,26.90
2022-11-15T04:06:31.108Z,21.40
2022-11-15T04:07:03.487Z,34.40
2022-11-15T04:07:35.307Z,33.30
2022-11-15T04:08:07.371Z,17.90
2022-11-15T04:08:39.176Z,19.00
2022-11-15T04:09:11.176Z,24.30
2022-11-15T04:10:01.318Z,40.80
2022-11-15T04:10:33.148Z,34.60
2022-11-15T04:11:04.866Z,19.60
2022-11-15T04:11:36.717Z,20.90
2022-11-15T04:12:08.521Z,22.70
2022-11-15T04:12:43.992Z,15.30
2022-11-15T04:13:15.733Z,23.10
2022-11-15T04:13:47.596Z,27.20
2022-11-15T04:14:19.422Z,21.10
2022-11-15T04:15:07.506Z,24.20
2022-11-15T04:15:39.400Z,14.50
2022-11-15T04:16:11.303Z,22.90
2022-11-15T04:16:44.169Z,18.50
2022-11-15T04:17:16.036Z,21.30
2022-11-15T04:17:55.740Z,30.80
2022-11-15T04:18:27.733Z,21.50
2022-11-15T04:19:18.000Z,20.90
2022-11-15T04:20:08.281Z,14.10
2022-11-15T04:20:58.931Z,24.50
2022-11-15T04:21:49.308Z,11.30
2022-11-15T04:22:39.576Z,15.20
2022-11-15T04:23:33.670Z,15.70
2022-11-15T04:24:06.037Z,21.10
2022-11-15T04:24:37.916Z,12.70
2022-11-15T04:25:09.829Z,27.10
2022-11-15T04:25:43.146Z,29.00
2022-11-15T04:26:21.482Z,15.80
2022-11-15T04:26:53.442Z,10.30
2022-11-15T04:27:25.315Z,18.70
2022-11-15T04:27:57.142Z,19.40
2022-11-15T04:28:29.432Z,22.30
2022-11-15T04:29:19.696Z,13.40
2022-11-15T04:29:51.522Z,33.60
2022-11-15T04:30:23.286Z,13.90
2022-11-15T04:30:55.588Z,9.10
2022-11-15T04:31:27.968Z,18.10
2022-11-15T04:31:59.837Z,18.80
2022-11-15T04:32:31.828Z,17.30
2022-11-15T04:33:04.126Z,21.20
2022-11-15T04:33:36.024Z,15.10
2022-11-15T04:34:07.893Z,16.10
2022-11-15T04:34:39.674Z,13.30
2022-11-15T04:35:12.319Z,21.90
2022-11-15T04:35:44.231Z,16.80
2022-11-15T04:36:34.346Z,14.30
2022-11-15T04:37:12.335Z,12.10
2022-11-15T04:37:49.057Z,13.40
2022-11-15T04:38:21.152Z,24.90
2022-11-15T04:38:53.121Z,26.70
2022-11-15T04:39:24.918Z,20.40
2022-11-15T04:39:56.620Z,20.80
2022-11-15T04:40:28.604Z,18.60
2022-11-15T04:41:00.891Z,20.00
2022-11-15T04:41:32.827Z,25.60
2022-11-15T04:42:04.777Z,22.50
2022-11-15T04:42:36.469Z,18.10
2022-11-15T04:43:08.252Z,22.30
2022-11-15T04:43:40.389Z,31.00
2022-11-15T04:44:12.673Z,13.50
2022-11-15T04:44:44.546Z,25.30
2022-11-15T04:45:16.570Z,23.50
2022-11-15T04:45:48.381Z,13.90
2022-11-15T04:46:20.122Z,15.30
2022-11-15T04:46:52.046Z,16.10
2022-11-15T04:47:23.950Z,17.10
2022-11-15T04:47:55.776Z,33.20
2022-11-15T04:48:27.767Z,14.60
2022-11-15T04:48:59.742Z,14.80
2022-11-15T04:49:31.702Z,30.50
2022-11-15T04:50:03.901Z,15.70
2022-11-15T04:50:35.580Z,15.70
2022-11-15T04:51:07.494Z,14.00
2022-11-15T04:51:39.417Z,24.30
2022-11-15T04:52:11.301Z,31.70
2022-11-15T04:52:51.019Z,13.00
2022-11-15T04:53:22.773Z,17.60
2022-11-15T04:53:54.734Z,13.50
2022-11-15T04:54:26.594Z,18.10
2022-11-15T04:54:59.760Z,12.90
2022-11-15T04:55:33.210Z,11.20
2022-11-15T04:56:05.126Z,12.40
2022-11-15T04:56:37.109Z,16.60
2022-11-15T04:57:08.970Z,16.10
2022-11-15T04:57:40.844Z,20.80
2022-11-15T04:58:12.706Z,16.80
2022-11-15T04:58:44.538Z,15.80
2022-11-15T04:59:16.420Z,31.50
2022-11-15T04:59:48.220Z,17.70
2022-11-15T05:00:20.004Z,13.70
2022-11-15T05:00:51.955Z,13.20
2022-11-15T05:01:24.030Z,17.30
2022-11-15T05:01:56.103Z,22.10
2022-11-15T05:02:47.982Z,13.70
2022-11-15T05:03:38.009Z,19.80
2022-11-15T05:04:22.200Z,14.40
2022-11-15T05:04:54.061Z,9.80
2022-11-15T05:05:26.008Z,20.00
2022-11-15T05:05:58.250Z,12.70
2022-11-15T05:06:30.439Z,14.50
2022-11-15T05:07:02.740Z,15.30
2022-11-15T05:07:35.444Z,13.40
2022-11-15T05:08:07.879Z,9.70
2022-11-15T05:08:39.612Z,11.70
2022-11-15T05:09:13.520Z,9.40
2022-11-15T05:09:45.314Z,10.30
2022-11-15T05:10:17.680Z,15.20
2022-11-15T05:10:49.415Z,13.70
2022-11-15T05:11:21.753Z,13.60
2022-11-15T05:11:53.620Z,18.50
2022-11-15T05:12:25.459Z,9.50
2022-11-15T05:12:57.362Z,18.60
2022-11-15T05:13:29.489Z,14.20
2022-11-15T05:14:01.603Z,12.80
2022-11-15T05:14:33.624Z,23.70
2022-11-15T05:15:06.002Z,21.50
2022-11-15T05:15:37.826Z,16.50
2022-11-15T05:16:09.667Z,27.20
2022-11-15T05:16:42.381Z,11.90
2022-11-15T05:17:14.169Z,21.90
2022-11-15T05:17:46.050Z,13.90
2022-11-15T05:18:23.138Z,18.70
2022-11-15T05:18:55.590Z,14.10
2022-11-15T05:19:27.403Z,16.50
2022-11-15T05:19:59.190Z,26.60
2022-11-15T05:20:31.084Z,12.20
2022-11-15T05:21:12.823Z,9.40
2022-11-15T05:21:44.537Z,24.30
2022-11-15T05:22:16.453Z,21.50
2022-11-15T05:22:48.423Z,14.80
2022-11-15T05:23:20.110Z,12.10
2022-11-15T05:23:52.037Z,16.10
2022-11-15T05:24:23.932Z,23.70
2022-11-15T05:24:55.771Z,21.30
2022-11-15T05:25:27.695Z,21.50
2022-11-15T05:26:06.450Z,13.40
2022-11-15T05:26:40.719Z,28.40
2022-11-15T05:27:12.710Z,23.80
2022-11-15T05:27:44.441Z,29.00
2022-11-15T05:28:16.347Z,15.10
2022-11-15T05:28:54.275Z,17.80
2022-11-15T05:29:26.102Z,29.70
2022-11-15T05:29:57.742Z,24.30
2022-11-15T05:30:30.517Z,13.30
2022-11-15T05:31:11.702Z,24.00
2022-11-15T05:31:43.611Z,12.20
2022-11-15T05:32:18.518Z,20.60
2022-11-15T05:32:51.209Z,20.80
2022-11-15T05:33:24.496Z,22.00
2022-11-15T05:33:57.188Z,27.70
2022-11-15T05:34:28.982Z,22.10
2022-11-15T05:35:00.627Z,25.80
2022-11-15T05:35:39.416Z,20.60
2022-11-15T05:36:26.253Z,11.80
2022-11-15T05:36:58.823Z,15.20
2022-11-15T05:37:31.025Z,36.20
2022-11-15T05:38:03.656Z,19.80
2022-11-15T05:38:35.571Z,15.40
2022-11-15T05:39:09.289Z,17.80
2022-11-15T05:39:41.512Z,22.40
2022-11-15T05:40:13.489Z,17.80
2022-11-15T05:40:45.298Z,16.20
2022-11-15T05:41:21.355Z,17.10
2022-11-15T05:42:00.013Z,17.50
2022-11-15T05:42:31.836Z,13.10
2022-11-15T05:43:05.117Z,14.30
2022-11-15T05:43:39.773Z,27.80
2022-11-15T05:44:15.329Z,28.50
2022-11-15T05:44:49.686Z,25.00
2022-11-15T05:45:26.543Z,23.00
2022-11-15T05:46:00.429Z,17.20
2022-11-15T05:46:33.900Z,12.40
2022-11-15T05:47:09.841Z,12.40
2022-11-15T05:47:42.346Z,16.90
2022-11-15T05:48:15.176Z,10.70
2022-11-15T05:48:50.869Z,12.40
2022-11-15T05:49:26.567Z,10.70
2022-11-15T05:49:58.708Z,17.10
2022-11-15T05:50:31.203Z,12.00
2022-11-15T05:51:05.187Z,22.40
2022-11-15T05:51:37.275Z,21.20
2022-11-15T05:52:12.741Z,21.90
2022-11-15T05:52:46.540Z,21.60
2022-11-15T05:53:23.593Z,11.90
2022-11-15T05:53:58.804Z,31.50
2022-11-15T05:54:32.784Z,9.40
2022-11-15T05:55:06.682Z,21.00
2022-11-15T05:55:39.790Z,12.10
2022-11-15T05:56:13.006Z,9.30
2022-11-15T05:56:44.841Z,12.20
2022-11-15T05:57:18.050Z,17.80
2022-11-15T05:57:50.396Z,16.80
2022-11-15T05:58:22.837Z,18.80
2022-11-15T05:58:59.661Z,20.80
2022-11-15T05:59:33.886Z,8.40
2022-11-15T06:00:06.642Z,18.90
2022-11-15T06:00:38.957Z,19.90
2022-11-15T06:01:11.348Z,19.20
2022-11-15T06:01:43.333Z,22.10
2022-11-15T06:02:15.303Z,17.50
2022-11-15T06:02:47.161Z,19.70
2022-11-15T06:03:18.976Z,17.60
2022-11-15T06:03:50.804Z,15.90
2022-11-15T06:04:23.002Z,15.30
2022-11-15T06:04:54.890Z,12.40
2022-11-15T06:05:26.676Z,10.30
2022-11-15T06:05:58.621Z,9.10
2022-11-15T06:06:30.597Z,18.60
2022-11-15T06:07:02.728Z,18.70
2022-11-15T06:07:34.631Z,15.00
2022-11-15T06:08:06.723Z,22.70
2022-11-15T06:08:38.585Z,13.30
2022-11-15T06:09:10.664Z,22.50
2022-11-15T06:09:42.654Z,13.60
2022-11-15T06:10:14.573Z,26.80
2022-11-15T06:10:46.420Z,11.40
2022-11-15T06:11:18.345Z,9.90
2022-11-15T06:11:50.523Z,22.40
2022-11-15T06:12:22.715Z,11.80
2022-11-15T06:12:59.301Z,28.10
2022-11-15T06:13:31.529Z,15.80
2022-11-15T06:14:03.791Z,16.60
2022-11-15T06:14:35.795Z,10.60
2022-11-15T06:15:08.305Z,17.10
2022-11-15T06:15:40.072Z,16.70
2022-11-15T06:16:11.920Z,29.20
2022-11-15T06:16:44.762Z,12.90
2022-11-15T06:17:16.732Z,14.60
2022-11-15T06:17:48.963Z,15.70
2022-11-15T06:18:20.837Z,13.80
2022-11-15T06:18:52.674Z,15.60
2022-11-15T06:19:24.530Z,23.00
2022-11-15T06:19:56.379Z,19.40
2022-11-15T06:20:30.195Z,14.00
2022-11-15T06:21:02.415Z,14.10
2022-11-15T06:21:34.295Z,23.20
2022-11-15T06:22:06.085Z,28.60
2022-11-15T06:22:37.886Z,12.90
2022-11-15T06:23:09.871Z,31.90
2022-11-15T06:23:41.812Z,26.30
2022-11-15T06:24:13.642Z,23.80
2022-11-15T06:24:45.912Z,21.30
2022-11-15T06:25:17.750Z,14.40
2022-11-15T06:25:49.753Z,20.70
2022-11-15T06:26:21.649Z,19.30
2022-11-15T06:26:54.239Z,24.30
2022-11-15T06:27:26.161Z,24.10
2022-11-15T06:27:59.455Z,13.70
2022-11-15T06:28:32.667Z,21.60
2022-11-15T06:29:05.064Z,23.70
2022-11-15T06:29:36.857Z,24.60
2022-11-15T06:30:09.208Z,17.30
2022-11-15T06:30:41.016Z,37.70
2022-11-15T06:31:12.918Z,17.30
2022-11-15T06:31:44.806Z,17.50
2022-11-15T06:32:16.747Z,42.90
2022-11-15T06:32:48.674Z,25.60
2022-11-15T06:33:20.647Z,33.60
2022-11-15T06:33:52.643Z,20.20
2022-11-15T06:34:25.300Z,22.20
2022-11-15T06:34:57.739Z,16.50
2022-11-15T06:35:32.047Z,30.40
2022-11-15T06:36:06.376Z,22.80
2022-11-15T06:36:38.316Z,34.00
2022-11-15T06:37:10.257Z,16.50
2022-11-15T06:37:43.059Z,17.30
2022-11-15T06:38:14.748Z,14.10
2022-11-15T06:38:47.045Z,18.60
2022-11-15T06:39:18.904Z,21.10
2022-11-15T06:39:50.757Z,12.40
2022-11-15T06:40:22.851Z,11.60
2022-11-15T06:40:54.575Z,8.50
2022-11-15T06:41:26.525Z,13.60
2022-11-15T06:41:58.455Z,18.00
2022-11-15T06:42:30.396Z,20.80
2022-11-15T06:43:03.779Z,23.30
2022-11-15T06:43:36.403Z,21.90
2022-11-15T06:44:08.204Z,16.30
2022-11-15T06:44:40.099Z,8.00
2022-11-15T06:45:11.959Z,14.50
2022-11-15T06:45:43.716Z,35.30
2022-11-15T06:46:15.413Z,89.10
2022-11-15T06:46:47.201Z,130.90
2022-11-15T06:47:19.158Z,147.10
2022-11-15T06:47:51.071Z,82.50
2022-11-15T06:48:22.785Z,59.40
2022-11-15T06:48:54.689Z,40.30
2022-11-15T06:49:26.552Z,38.80
2022-11-15T06:49:58.395Z,17.40
2022-11-15T06:50:30.205Z,14.90
2022-11-15T06:51:03.425Z,14.30
2022-11-15T06:51:35.214Z,19.30
2022-11-15T06:52:07.151Z,19.00
2022-11-15T06:52:38.946Z,39.10
2022-11-15T06:53:10.740Z,22.80
2022-11-15T06:53:42.470Z,20.10
2022-11-15T06:54:14.421Z,28.70
2022-11-15T06:54:46.297Z,22.10
2022-11-15T06:55:18.494Z,22.00
2022-11-15T06:55:55.048Z,30.40
2022-11-15T06:56:27.443Z,25.40
2022-11-15T06:56:59.368Z,16.20
2022-11-15T06:57:32.805Z,63.00
2022-11-15T06:58:04.747Z,82.00
2022-11-15T06:58:36.844Z,164.30
2022-11-15T06:59:08.619Z,177.60
2022-11-15T06:59:40.954Z,140.50
2022-11-15T07:00:13.517Z,48.30
2022-11-15T07:00:45.317Z,27.60
2022-11-15T07:01:17.491Z,28.70
2022-11-15T07:01:50.185Z,34.90
2022-11-15T07:02:22.114Z,18.90
2022-11-15T07:02:53.977Z,23.20
2022-11-15T07:03:26.495Z,13.30
2022-11-15T07:03:58.383Z,14.80
2022-11-15T07:04:30.323Z,16.60
2022-11-15T07:05:02.113Z,30.50
2022-11-15T07:05:34.286Z,12.40
2022-11-15T07:06:07.707Z,20.40
2022-11-15T07:06:39.753Z,26.90
2022-11-15T07:07:12.330Z,29.60
2022-11-15T07:07:51.037Z,18.10
2022-11-15T07:08:25.141Z,24.00
2022-11-15T07:08:57.274Z,11.70
2022-11-15T07:09:29.136Z,15.80
2022-11-15T07:10:01.050Z,17.80
2022-11-15T07:10:32.924Z,14.00
2022-11-15T07:11:07.152Z,14.70
2022-11-15T07:11:38.947Z,25.50
2022-11-15T07:12:10.674Z,10.70
2022-11-15T07:12:42.540Z,15.30
2022-11-15T07:13:14.520Z,15.00
2022-11-15T07:13:46.420Z,20.60
2022-11-15T07:14:18.161Z,17.70
2022-11-15T07:14:49.932Z,18.80
2022-11-15T07:15:24.611Z,18.90
2022-11-15T07:15:56.467Z,11.40
2022-11-15T07:16:28.313Z,15.40
2022-11-15T07:17:00.221Z,13.20
2022-11-15T07:17:32.456Z,13.20
2022-11-15T07:18:04.491Z,7.10
2022-11-15T07:18:38.236Z,15.80
2022-11-15T07:19:10.577Z,10.00
2022-11-15T07:19:42.335Z,9.00
2022-11-15T07:20:14.437Z,7.80
2022-11-15T07:20:46.427Z,22.10
2022-11-15T07:21:19.101Z,10.10
2022-11-15T07:21:52.252Z,8.80
2022-11-15T07:22:23.929Z,9.20
2022-11-15T07:23:03.940Z,11.00
2022-11-15T07:23:40.078Z,12.30
2022-11-15T07:24:11.997Z,10.90
2022-11-15T07:24:43.705Z,8.50
2022-11-15T07:25:15.712Z,9.00
2022-11-15T07:25:47.605Z,8.70
2022-11-15T07:26:19.477Z,18.90
2022-11-15T07:26:51.364Z,17.40
2022-11-15T07:27:23.340Z,13.90
2022-11-15T07:27:59.858Z,12.30
2022-11-15T07:28:32.032Z,11.40
2022-11-15T07:29:04.011Z,9.10
2022-11-15T07:29:36.171Z,10.30
2022-11-15T07:30:08.489Z,18.10
2022-11-15T07:30:45.070Z,13.90
2022-11-15T07:31:17.301Z,19.10
2022-11-15T07:31:50.995Z,13.70
2022-11-15T07:32:23.167Z,12.60
2022-11-15T07:32:55.079Z,13.00
2022-11-15T07:33:26.886Z,13.30
2022-11-15T07:33:58.886Z,12.90
2022-11-15T07:34:30.616Z,9.30